Time;durP1;ratioP1;P1;durP2;ratioP2;P2;SDS_P1;SDS_P2;PMS_P1;PMS_P2;Temp;Humidity;BMP_temperature;BMP_pressure;BME280_temperature;BME280_humidity;BME280_pressure;Samples;Min_cycle;Max_cycle;Signal;HPM_P1;HPM_P2
2023/04/26 00:00:00;;;;;;;2.03;1.00;;;7.00;99.90;;;;;;5073167;28;20485;-54
2023/04/26 00:02:27;;;;;;;2.10;1.70;;;7.10;99.90;;;;;;5074723;28;20802;-54
2023/04/26 00:04:54;;;;;;;1.80;1.70;;;6.80;99.90;;;;;;5073906;28;20551;-54
2023/04/26 00:07:23;;;;;;;1.80;1.20;;;6.90;99.90;;;;;;5066139;28;20499;-54
2023/04/26 00:09:52;;;;;;;1.20;1.07;;;7.00;99.90;;;;;;5053778;28;20906;-54
2023/04/26 00:12:20;;;;;;;1.57;1.10;;;7.10;99.90;;;;;;5054555;28;20445;-54
2023/04/26 00:14:46;;;;;;;1.63;0.60;;;7.20;99.90;;;;;;5054459;28;20810;-54
2023/04/26 00:17:13;;;;;;;1.97;1.03;;;7.10;99.90;;;;;;5061229;28;20479;-54
2023/04/26 00:19:40;;;;;;;1.20;0.80;;;7.00;99.90;;;;;;5073919;28;20444;-54
2023/04/26 00:22:07;;;;;;;1.27;1.00;;;6.20;99.90;;;;;;5074394;28;20945;-54
2023/04/26 00:24:35;;;;;;;1.83;1.10;;;6.20;99.90;;;;;;5074154;28;20473;-54
2023/04/26 00:27:07;;;;;;;1.67;1.57;;;6.10;99.90;;;;;;5068557;28;20445;-54
2023/04/26 00:29:34;;;;;;;2.00;1.70;;;6.20;99.90;;;;;;5054487;28;20445;-54
2023/04/26 00:32:01;;;;;;;2.33;1.60;;;6.50;99.90;;;;;;5054445;28;20442;-54
2023/04/26 00:34:32;;;;;;;1.60;1.30;;;6.70;99.90;;;;;;5054157;28;20445;-54
2023/04/26 00:36:59;;;;;;;1.37;1.27;;;6.90;99.90;;;;;;5058621;28;20435;-53
2023/04/26 00:39:26;;;;;;;2.00;1.80;;;7.10;99.90;;;;;;5074027;28;20523;-54
2023/04/26 00:41:53;;;;;;;2.93;1.77;;;6.60;99.90;;;;;;5073858;28;20468;-54
2023/04/26 00:44:22;;;;;;;2.00;1.70;;;6.20;99.90;;;;;;5060509;28;20473;-54
2023/04/26 00:46:49;;;;;;;2.03;1.87;;;6.00;99.90;;;;;;5058981;28;20902;-54
2023/04/26 00:49:18;;;;;;;2.80;2.40;;;5.70;99.90;;;;;;5064939;28;20797;-54
2023/04/26 00:51:46;;;;;;;2.50;2.03;;;5.60;99.90;;;;;;5053876;28;20528;-54
2023/04/26 00:54:13;;;;;;;2.70;2.30;;;5.60;99.90;;;;;;5053702;28;20739;-54
2023/04/26 00:56:41;;;;;;;2.57;2.17;;;5.70;99.90;;;;;;5057530;28;20466;-53
2023/04/26 00:59:08;;;;;;;3.50;2.50;;;6.00;99.90;;;;;;5073464;28;20476;-52
2023/04/26 01:01:37;;;;;;;2.53;2.33;;;6.20;99.90;;;;;;5073917;28;20541;-53
2023/04/26 01:04:04;;;;;;;2.27;2.07;;;6.50;99.90;;;;;;5073819;28;20518;-54
2023/04/26 01:06:34;;;;;;;2.47;2.27;;;6.60;99.90;;;;;;5070669;28;20576;-54
2023/04/26 01:09:03;;;;;;;2.30;2.10;;;6.50;99.90;;;;;;5053220;28;20449;-54
2023/04/26 01:11:31;;;;;;;2.10;1.90;;;6.70;99.90;;;;;;5071005;28;20447;-53
2023/04/26 01:13:58;;;;;;;2.80;2.40;;;6.80;99.90;;;;;;5073254;28;20527;-54
2023/04/26 01:16:27;;;;;;;2.23;2.03;;;6.80;99.90;;;;;;5072933;28;21050;-54
2023/04/26 01:18:55;;;;;;;1.83;1.67;;;6.60;99.90;;;;;;5072350;28;20441;-54
2023/04/26 01:21:23;;;;;;;2.87;2.40;;;6.60;99.90;;;;;;5073704;28;20452;-54
2023/04/26 01:23:52;;;;;;;2.30;2.10;;;6.70;99.90;;;;;;5073154;28;20544;-54
2023/04/26 01:26:19;;;;;;;3.30;2.70;;;6.50;99.90;;;;;;5072738;28;20563;-54
2023/04/26 01:28:48;;;;;;;2.50;2.30;;;6.50;99.90;;;;;;5052925;28;20445;-55
2023/04/26 01:31:15;;;;;;;3.27;3.00;;;6.50;99.90;;;;;;5053138;28;20449;-54
2023/04/26 01:33:42;;;;;;;3.80;3.00;;;6.60;99.90;;;;;;5061285;28;20529;-54
2023/04/26 01:36:10;;;;;;;3.07;2.77;;;6.60;99.90;;;;;;5134632;22;20497;-93
2023/04/26 01:38:38;;;;;;;2.93;2.63;;;6.70;99.90;;;;;;5098857;28;20461;-94
2023/04/26 01:41:10;;;;;;;3.30;2.53;;;6.90;99.90;;;;;;5099392;28;20428;-93
2023/04/26 01:43:42;;;;;;;3.27;2.97;;;6.90;99.90;;;;;;5099232;28;20447;-93
2023/04/26 01:46:11;;;;;;;3.17;2.53;;;7.00;99.90;;;;;;5098897;28;20479;-93
2023/04/26 01:48:38;;;;;;;2.57;2.37;;;6.90;99.90;;;;;;5096161;28;20508;-92
2023/04/26 01:51:08;;;;;;;3.33;3.03;;;6.90;99.90;;;;;;5097088;28;20440;-89
2023/04/26 01:53:35;;;;;;;3.10;2.80;;;7.10;99.90;;;;;;5098977;28;20451;-88
2023/04/26 01:56:02;;;;;;;3.73;3.33;;;7.10;99.90;;;;;;5098276;28;20455;-88
2023/04/26 01:58:31;;;;;;;3.20;2.90;;;7.10;99.90;;;;;;5078926;28;20453;-89
2023/04/26 02:01:05;;;;;;;3.13;2.83;;;7.10;99.90;;;;;;5078786;28;20495;-88
2023/04/26 02:03:33;;;;;;;2.73;2.53;;;7.20;99.90;;;;;;5077205;28;20468;-89
2023/04/26 02:06:00;;;;;;;3.33;3.00;;;7.10;99.90;;;;;;5076895;28;20499;-90
2023/04/26 02:08:27;;;;;;;3.30;3.00;;;7.30;99.90;;;;;;5096902;28;20475;-90
2023/04/26 02:10:54;;;;;;;2.77;2.57;;;7.30;99.90;;;;;;5098872;28;20490;-91
2023/04/26 02:13:22;;;;;;;3.30;3.00;;;7.30;99.90;;;;;;5097687;28;20430;-90
2023/04/26 02:15:51;;;;;;;3.90;2.43;;;7.30;99.90;;;;;;5098343;28;20466;-90
2023/04/26 02:18:22;;;;;;;3.07;2.70;;;7.20;99.90;;;;;;5097471;28;20453;-90
2023/04/26 02:20:49;;;;;;;2.53;2.33;;;7.10;99.90;;;;;;5097343;28;20462;-89
2023/04/26 02:23:17;;;;;;;3.03;2.73;;;7.00;99.90;;;;;;5095791;28;20429;-91
2023/04/26 02:25:47;;;;;;;3.40;3.10;;;6.80;99.90;;;;;;5089617;28;20970;-89
2023/04/26 02:28:14;;;;;;;3.13;2.83;;;6.50;99.90;;;;;;5096118;28;20514;-88
2023/04/26 02:30:42;;;;;;;3.77;3.40;;;6.60;99.90;;;;;;5097445;28;20489;-89
2023/04/26 02:33:11;;;;;;;3.87;3.23;;;6.80;99.90;;;;;;5096890;28;20429;-88
2023/04/26 02:35:44;;;;;;;3.37;3.07;;;7.00;99.90;;;;;;5077635;28;20449;-88
2023/04/26 02:38:11;;;;;;;3.40;2.90;;;7.10;99.90;;;;;;5097145;28;20491;-89
2023/04/26 02:40:39;;;;;;;3.80;3.50;;;7.00;99.90;;;;;;5098201;28;20436;-89
2023/04/26 02:43:09;;;;;;;2.53;2.33;;;7.20;99.90;;;;;;5097620;28;20453;-90
2023/04/26 02:45:42;;;;;;;2.90;2.70;;;7.10;99.90;;;;;;5078985;28;20484;-90
2023/04/26 02:48:11;;;;;;;3.90;2.67;;;7.20;99.90;;;;;;5077578;28;20450;-90
2023/04/26 02:50:40;;;;;;;2.90;2.40;;;7.20;99.90;;;;;;5077367;28;20437;-89
2023/04/26 02:53:07;;;;;;;3.40;2.70;;;7.20;99.90;;;;;;5077531;28;20440;-90
2023/04/26 02:55:34;;;;;;;2.53;2.33;;;7.20;99.90;;;;;;5096497;28;20458;-89
2023/04/26 02:58:02;;;;;;;5.43;2.50;;;7.10;99.90;;;;;;5097711;28;20479;-89
2023/04/26 03:00:29;;;;;;;3.67;3.00;;;7.10;99.90;;;;;;5096071;28;20449;-90
2023/04/26 03:03:00;;;;;;;3.40;3.10;;;6.90;99.90;;;;;;5096363;28;20455;-91
2023/04/26 03:05:28;;;;;;;3.33;2.90;;;6.70;99.90;;;;;;5094865;28;20475;-89
2023/04/26 03:07:55;;;;;;;2.93;2.73;;;6.90;99.90;;;;;;5091461;28;20469;-88
2023/04/26 03:10:23;;;;;;;3.70;3.27;;;6.70;99.90;;;;;;5094621;28;20527;-90
2023/04/26 03:12:50;;;;;;;3.07;2.70;;;6.90;99.90;;;;;;5080496;28;20425;-90
2023/04/26 03:15:17;;;;;;;2.70;2.50;;;6.90;99.90;;;;;;5076978;28;20438;-89
2023/04/26 03:17:44;;;;;;;3.17;2.87;;;6.70;99.90;;;;;;5076946;28;20521;-89
2023/04/26 03:20:12;;;;;;;3.60;3.30;;;6.80;99.90;;;;;;5076991;28;20483;-89
2023/04/26 03:22:41;;;;;;;3.40;3.10;;;6.80;99.90;;;;;;5077490;28;20439;-90
2023/04/26 03:25:08;;;;;;;3.67;3.37;;;6.90;99.90;;;;;;5076772;28;20434;-90
2023/04/26 03:27:35;;;;;;;3.60;3.30;;;6.80;99.90;;;;;;5077229;28;20485;-89
2023/04/26 03:30:03;;;;;;;4.00;3.70;;;6.50;99.90;;;;;;5094079;28;20462;-89
2023/04/26 03:32:30;;;;;;;4.17;3.80;;;6.30;99.90;;;;;;5091983;28;20431;-89
2023/04/26 03:34:57;;;;;;;4.63;3.37;;;6.30;99.90;;;;;;5074851;28;20453;-89
2023/04/26 03:37:25;;;;;;;4.23;3.50;;;6.40;99.90;;;;;;5080631;28;20456;-89
2023/04/26 03:39:56;;;;;;;4.40;4.00;;;6.60;99.90;;;;;;5097052;28;20483;-89
2023/04/26 03:42:26;;;;;;;3.83;3.20;;;6.80;99.90;;;;;;5097216;28;20455;-88
2023/04/26 03:44:53;;;;;;;3.50;3.20;;;7.00;99.90;;;;;;5096812;28;20433;-88
2023/04/26 03:47:21;;;;;;;3.60;2.97;;;7.00;99.90;;;;;;5089142;28;20495;-89
2023/04/26 03:49:48;;;;;;;6.10;3.47;;;6.70;99.90;;;;;;5076463;28;20501;-89
2023/04/26 03:52:15;;;;;;;6.20;3.47;;;6.60;99.90;;;;;;5076959;28;20433;-89
2023/04/26 03:54:43;;;;;;;3.53;3.23;;;6.70;99.90;;;;;;5078554;28;20442;-90
2023/04/26 03:57:12;;;;;;;4.17;3.37;;;6.90;99.90;;;;;;5091751;28;20461;-89
2023/04/26 03:59:39;;;;;;;3.80;3.40;;;6.60;99.90;;;;;;5076742;28;20456;-89
2023/04/26 04:02:09;;;;;;;4.73;3.73;;;6.80;99.90;;;;;;5088000;28;20424;-89
2023/04/26 04:04:37;;;;;;;5.03;4.53;;;6.80;99.90;;;;;;5096703;28;20436;-89
2023/04/26 04:07:04;;;;;;;6.10;3.53;;;6.80;99.90;;;;;;5095815;28;20535;-89
2023/04/26 04:09:31;;;;;;;4.00;3.60;;;6.50;99.90;;;;;;5097009;28;20440;-90
2023/04/26 04:11:58;;;;;;;4.30;3.90;;;6.30;99.90;;;;;;5097207;28;20878;-90
2023/04/26 04:14:27;;;;;;;4.23;3.73;;;6.10;99.90;;;;;;5096776;28;20522;-91
2023/04/26 04:16:58;;;;;;;5.10;3.47;;;6.20;99.90;;;;;;5094034;28;20594;-90
2023/04/26 04:19:25;;;;;;;3.63;3.33;;;6.30;99.90;;;;;;5076237;28;20449;-91
2023/04/26 04:21:55;;;;;;;4.30;3.87;;;6.40;99.90;;;;;;5076811;28;20445;-90
2023/04/26 04:24:23;;;;;;;4.97;4.47;;;6.50;99.90;;;;;;5076138;28;20437;-90
2023/04/26 04:26:50;;;;;;;5.07;4.00;;;6.10;99.90;;;;;;5093093;28;20476;-90
2023/04/26 04:29:17;;;;;;;6.43;4.20;;;6.30;99.90;;;;;;5076641;28;20456;-90
2023/04/26 04:31:46;;;;;;;5.03;4.33;;;6.60;99.90;;;;;;5076681;28;20436;-90
2023/04/26 04:34:15;;;;;;;6.30;5.70;;;6.70;99.90;;;;;;5076561;28;20460;-90
2023/04/26 04:36:42;;;;;;;5.80;5.30;;;6.80;99.90;;;;;;5077464;28;20457;-89
2023/04/26 04:39:14;;;;;;;4.67;4.00;;;6.70;99.90;;;;;;5079945;28;20429;-89
2023/04/26 04:41:46;;;;;;;5.10;4.60;;;6.50;99.90;;;;;;5096540;28;20535;-89
2023/04/26 04:44:15;;;;;;;5.33;4.80;;;6.50;99.90;;;;;;5097495;28;20435;-90
2023/04/26 04:46:42;;;;;;;4.40;4.00;;;6.60;99.90;;;;;;5098126;28;20468;-89
2023/04/26 04:49:12;;;;;;;4.03;3.73;;;6.50;99.90;;;;;;5084959;28;20478;-90
2023/04/26 04:51:42;;;;;;;4.13;3.73;;;6.70;99.90;;;;;;5088832;28;20464;-89
2023/04/26 04:54:11;;;;;;;4.00;3.60;;;6.90;99.90;;;;;;5080687;28;20441;-89
2023/04/26 04:56:41;;;;;;;4.40;3.43;;;6.90;99.90;;;;;;5080077;28;20457;-89
2023/04/26 04:59:08;;;;;;;3.80;3.50;;;7.00;99.90;;;;;;5085210;28;20443;-90
2023/04/26 05:01:37;;;;;;;3.40;3.07;;;6.80;99.90;;;;;;5085445;28;20443;-90
2023/04/26 05:04:05;;;;;;;4.03;3.63;;;6.40;99.90;;;;;;5087065;28;20433;-89
2023/04/26 05:06:34;;;;;;;4.20;3.70;;;6.50;99.90;;;;;;5089638;28;20501;-89
2023/04/26 05:09:01;;;;;;;3.80;3.50;;;6.80;99.90;;;;;;5088155;28;20468;-89
2023/04/26 05:11:28;;;;;;;4.30;3.40;;;6.90;99.90;;;;;;5095618;28;20437;-89
2023/04/26 05:13:56;;;;;;;3.80;3.37;;;6.50;99.90;;;;;;5090653;28;20453;-88
2023/04/26 05:16:23;;;;;;;8.30;4.23;;;6.30;99.90;;;;;;5085684;28;20468;-89
2023/04/26 05:18:50;;;;;;;5.20;4.50;;;6.20;99.90;;;;;;5086661;28;20437;-87
2023/04/26 05:21:24;;;;;;;5.73;5.23;;;6.30;99.90;;;;;;5095027;28;20531;-89
2023/04/26 05:23:52;;;;;;;7.17;6.00;;;6.30;99.90;;;;;;5088110;28;20480;-89
2023/04/26 05:26:19;;;;;;;5.33;4.30;;;6.50;99.90;;;;;;5085519;28;20471;-89
2023/04/26 05:28:46;;;;;;;5.80;4.70;;;6.50;99.90;;;;;;5083332;28;20468;-87
2023/04/26 05:31:14;;;;;;;5.70;5.10;;;6.60;99.90;;;;;;5089903;28;20441;-88
2023/04/26 05:33:41;;;;;;;5.30;4.43;;;6.60;99.90;;;;;;5078778;28;20438;-87
2023/04/26 05:36:09;;;;;;;3.87;3.50;;;6.70;99.90;;;;;;5080830;28;20476;-86
2023/04/26 05:38:36;;;;;;;4.97;4.47;;;6.70;99.90;;;;;;5095001;28;20480;-86
2023/04/26 05:41:05;;;;;;;5.67;5.17;;;6.80;99.90;;;;;;5093561;28;20455;-86
2023/04/26 05:43:33;;;;;;;4.90;4.10;;;6.80;99.90;;;;;;5094875;28;20416;-87
2023/04/26 05:46:00;;;;;;;4.30;3.70;;;6.90;99.90;;;;;;5088415;28;20469;-87
2023/04/26 05:48:28;;;;;;;8.77;3.63;;;6.80;99.90;;;;;;5087539;28;20444;-87
2023/04/26 05:50:56;;;;;;;4.70;4.20;;;6.90;99.90;;;;;;5086279;28;20421;-87
2023/04/26 05:53:23;;;;;;;4.80;4.23;;;6.90;99.90;;;;;;5094668;28;20425;-88
2023/04/26 05:55:56;;;;;;;6.63;5.77;;;6.90;99.90;;;;;;5086485;28;20459;-91
2023/04/26 05:58:24;;;;;;;5.90;5.13;;;6.60;99.90;;;;;;5092721;28;20473;-90
2023/04/26 06:00:52;;;;;;;4.97;4.47;;;6.80;99.90;;;;;;5096669;28;20437;-89
2023/04/26 06:03:20;;;;;;;4.93;4.50;;;6.70;99.90;;;;;;5096834;28;20479;-90
2023/04/26 06:05:55;;;;;;;4.73;4.00;;;6.70;99.90;;;;;;5097920;28;20433;-90
2023/04/26 06:08:23;;;;;;;4.27;3.87;;;6.70;99.90;;;;;;5097302;28;20893;-92
2023/04/26 06:10:51;;;;;;;4.57;4.03;;;6.70;99.90;;;;;;5096400;28;20475;-90
2023/04/26 06:13:18;;;;;;;5.23;4.17;;;6.80;99.90;;;;;;5094284;28;20425;-90
2023/04/26 06:15:47;;;;;;;5.40;4.50;;;7.10;99.90;;;;;;5095354;28;20524;-91
2023/04/26 06:18:15;;;;;;;4.40;4.00;;;7.20;99.90;;;;;;5096189;28;20464;-90
2023/04/26 06:20:46;;;;;;;4.93;4.10;;;7.00;99.90;;;;;;5095116;28;20437;-91
2023/04/26 06:23:13;;;;;;;5.00;4.50;;;7.10;99.90;;;;;;5096896;28;20456;-90
2023/04/26 06:25:44;;;;;;;5.33;4.73;;;7.20;99.90;;;;;;5096867;28;20439;-91
2023/04/26 06:28:12;;;;;;;5.70;5.20;;;7.10;99.90;;;;;;5096017;28;20659;-90
2023/04/26 06:30:40;;;;;;;4.80;4.40;;;7.00;99.90;;;;;;5096100;28;20474;-89
2023/04/26 06:33:09;;;;;;;7.37;5.97;;;7.20;99.90;;;;;;5096291;28;20508;-91
2023/04/26 06:35:40;;;;;;;6.70;5.97;;;7.20;99.90;;;;;;5094852;28;20437;-90
2023/04/26 06:38:07;;;;;;;7.37;6.67;;;7.20;99.90;;;;;;5096374;28;20468;-87
2023/04/26 06:40:36;;;;;;;7.70;6.70;;;7.20;99.90;;;;;;5095634;28;20429;-90
2023/04/26 06:43:04;;;;;;;7.13;5.70;;;7.20;99.90;;;;;;5095960;28;20451;-91
2023/04/26 06:45:32;;;;;;;8.07;6.10;;;7.30;99.90;;;;;;5095588;28;20640;-92
2023/04/26 06:48:01;;;;;;;9.50;7.10;;;7.40;99.90;;;;;;5095209;28;20456;-90
2023/04/26 06:50:30;;;;;;;7.63;6.80;;;7.50;99.90;;;;;;5094755;28;20467;-89
2023/04/26 06:52:57;;;;;;;8.90;7.40;;;7.50;99.90;;;;;;5096039;28;20425;-91
2023/04/26 06:55:25;;;;;;;10.50;7.90;;;7.40;99.90;;;;;;5096514;28;20920;-91
2023/04/26 06:57:52;;;;;;;14.50;9.83;;;7.50;99.90;;;;;;5096168;28;20462;-91
2023/04/26 07:00:20;;;;;;;9.57;7.30;;;7.50;99.90;;;;;;5094622;28;20445;-90
2023/04/26 07:02:47;;;;;;;9.57;8.43;;;7.50;99.90;;;;;;5093825;28;20456;-90
2023/04/26 07:05:15;;;;;;;8.67;7.20;;;7.50;99.90;;;;;;5094824;28;20455;-91
2023/04/26 07:07:44;;;;;;;10.30;7.07;;;7.40;99.90;;;;;;5094314;28;20461;-91
2023/04/26 07:10:11;;;;;;;7.00;5.97;;;7.50;99.90;;;;;;5095826;28;20463;-91
2023/04/26 07:12:39;;;;;;;7.23;6.23;;;7.50;99.90;;;;;;5095873;28;20491;-91
2023/04/26 07:15:07;;;;;;;6.10;5.33;;;7.50;99.90;;;;;;5093145;28;20456;-89
2023/04/26 07:17:35;;;;;;;8.93;7.60;;;7.60;99.90;;;;;;5094870;28;20440;-89
2023/04/26 07:20:03;;;;;;;10.27;8.87;;;7.50;99.90;;;;;;5096319;28;20460;-89
2023/04/26 07:22:30;;;;;;;9.90;8.10;;;7.60;99.90;;;;;;5095789;28;20465;-89
2023/04/26 07:25:01;;;;;;;9.47;7.90;;;7.50;99.90;;;;;;5096341;28;20441;-91
2023/04/26 07:27:28;;;;;;;9.83;8.40;;;7.40;99.90;;;;;;5094196;28;20465;-92
2023/04/26 07:29:55;;;;;;;11.50;8.07;;;7.60;99.90;;;;;;5093200;28;20445;-91
2023/04/26 07:32:22;;;;;;;9.00;7.47;;;7.60;99.90;;;;;;5093900;28;20420;-90
2023/04/26 07:34:50;;;;;;;9.90;7.33;;;7.70;99.90;;;;;;5086825;28;20457;-89
2023/04/26 07:37:17;;;;;;;7.27;5.80;;;7.80;99.90;;;;;;5087407;28;20464;-89
2023/04/26 07:39:44;;;;;;;8.97;6.53;;;7.80;99.90;;;;;;5084580;28;20458;-89
2023/04/26 07:42:13;;;;;;;6.47;5.17;;;7.80;99.90;;;;;;5083861;28;20519;-89
2023/04/26 07:44:40;;;;;;;6.00;5.00;;;7.90;99.90;;;;;;5092141;28;20429;-89
2023/04/26 07:47:12;;;;;;;4.97;4.17;;;7.90;99.90;;;;;;5087327;28;20842;-90
2023/04/26 07:49:39;;;;;;;4.43;4.03;;;7.80;99.90;;;;;;5088737;28;20468;-90
2023/04/26 07:52:06;;;;;;;3.80;3.40;;;7.80;99.90;;;;;;5089351;28;20440;-89
2023/04/26 07:54:33;;;;;;;5.60;5.10;;;7.70;99.90;;;;;;5084061;28;20445;-89
2023/04/26 07:57:00;;;;;;;4.60;3.40;;;7.60;99.90;;;;;;5088769;28;20460;-89
2023/04/26 07:59:29;;;;;;;3.40;3.10;;;7.60;99.90;;;;;;5089975;28;20471;-89
2023/04/26 08:01:56;;;;;;;5.27;3.53;;;7.70;99.90;;;;;;5091856;28;20827;-89
2023/04/26 08:04:32;;;;;;;4.93;4.43;;;7.90;99.90;;;;;;5089218;28;20435;-88
2023/04/26 08:07:02;;;;;;;5.17;3.93;;;8.00;99.90;;;;;;5083123;28;20530;-89
2023/04/26 08:09:30;;;;;;;4.03;3.13;;;8.00;99.90;;;;;;5086052;28;20440;-89
2023/04/26 08:11:58;;;;;;;4.83;4.30;;;8.10;99.90;;;;;;5092569;28;20464;-89
2023/04/26 08:14:25;;;;;;;4.23;3.37;;;8.30;99.90;;;;;;5090383;28;20437;-89
2023/04/26 08:16:54;;;;;;;4.73;3.10;;;8.40;99.90;;;;;;5087983;28;20483;-88
2023/04/26 08:19:21;;;;;;;3.67;3.27;;;8.60;99.90;;;;;;5090321;28;20432;-88
2023/04/26 08:21:48;;;;;;;3.93;3.40;;;8.40;99.90;;;;;;5087424;28;20812;-89
2023/04/26 08:24:15;;;;;;;12.37;8.53;;;8.70;99.90;;;;;;5093735;28;20475;-88
2023/04/26 08:26:42;;;;;;;5.57;4.27;;;9.10;99.90;;;;;;5093799;28;20471;-90
2023/04/26 08:29:09;;;;;;;5.93;4.33;;;9.10;99.90;;;;;;5092169;28;20428;-91
2023/04/26 08:31:36;;;;;;;4.90;3.47;;;9.30;99.90;;;;;;5093873;28;20449;-89
2023/04/26 08:34:05;;;;;;;4.67;3.23;;;9.10;99.90;;;;;;5081118;28;20529;-89
2023/04/26 08:36:35;;;;;;;3.63;2.83;;;9.30;99.90;;;;;;5075537;28;20461;-87
2023/04/26 08:39:03;;;;;;;3.70;3.33;;;9.60;99.90;;;;;;5076724;28;20444;-86
2023/04/26 08:41:36;;;;;;;5.27;3.20;;;9.70;99.90;;;;;;5080600;28;20440;-86
2023/04/26 08:44:05;;;;;;;2.97;2.67;;;9.80;99.90;;;;;;5075002;28;20523;-87
2023/04/26 08:46:37;;;;;;;3.50;3.20;;;10.00;99.90;;;;;;5074855;28;20587;-87
2023/04/26 08:49:15;;;;;;;3.60;3.30;;;10.20;99.90;;;;;;5074651;28;20476;-87
2023/04/26 08:51:44;;;;;;;3.43;2.83;;;9.90;99.90;;;;;;5074949;28;20501;-87
2023/04/26 08:54:12;;;;;;;4.33;3.47;;;10.00;99.90;;;;;;5074376;28;20452;-87
2023/04/26 08:56:42;;;;;;;3.87;3.47;;;10.30;99.90;;;;;;5074253;28;20457;-87
2023/04/26 08:59:10;;;;;;;3.20;2.90;;;10.50;99.90;;;;;;5074774;28;20453;-86
2023/04/26 09:01:40;;;;;;;3.07;2.73;;;10.30;99.90;;;;;;5074370;28;20904;-87
2023/04/26 09:04:10;;;;;;;4.20;3.47;;;10.20;99.90;;;;;;5074323;28;20532;-87
2023/04/26 09:06:38;;;;;;;3.67;3.10;;;10.00;99.90;;;;;;5074123;28;20460;-87
2023/04/26 09:09:08;;;;;;;5.17;3.00;;;10.30;99.90;;;;;;5073882;28;20498;-86
2023/04/26 09:11:56;;;;;;;3.30;2.90;;;10.40;99.90;;;;;;5074118;28;20496;-86
2023/04/26 09:14:24;;;;;;;4.93;4.17;;;10.30;99.90;;;;;;5074016;28;20483;-86
2023/04/26 09:16:52;;;;;;;3.40;2.77;;;10.50;99.90;;;;;;5074030;28;20473;-86
2023/04/26 09:19:35;;;;;;;6.03;3.13;;;10.60;99.90;;;;;;5073514;28;20438;-86
2023/04/26 09:22:03;;;;;;;3.37;3.07;;;10.80;99.90;;;;;;5073975;28;20819;-86
2023/04/26 09:24:47;;;;;;;4.83;4.27;;;10.80;99.90;;;;;;5073692;28;20499;-86
2023/04/26 09:27:14;;;;;;;4.67;2.90;;;10.90;99.90;;;;;;5073255;28;20475;-86
2023/04/26 09:29:41;;;;;;;3.43;3.10;;;10.90;99.90;;;;;;5073309;28;21024;-87
2023/04/26 09:32:08;;;;;;;3.53;3.20;;;10.90;99.90;;;;;;5072291;28;20445;-86
2023/04/26 09:34:46;;;;;;;3.33;3.00;;;10.90;99.90;;;;;;5073060;28;20537;-86
2023/04/26 09:37:13;;;;;;;3.90;3.37;;;11.00;99.90;;;;;;5073293;28;20494;-86
2023/04/26 09:39:42;;;;;;;3.20;2.50;;;11.20;99.90;;;;;;5073515;28;20541;-86
2023/04/26 09:42:10;;;;;;;3.93;2.30;;;11.20;99.90;;;;;;5073324;28;20473;-87
2023/04/26 09:44:39;;;;;;;2.47;2.27;;;11.30;99.90;;;;;;5073135;28;20465;-86
2023/04/26 09:47:08;;;;;;;3.10;2.30;;;11.30;99.90;;;;;;5072977;28;20463;-87
2023/04/26 09:49:47;;;;;;;3.30;2.97;;;11.20;99.90;;;;;;5073383;28;20451;-87
2023/04/26 09:52:14;;;;;;;3.60;2.50;;;11.30;99.90;;;;;;5073056;28;20479;-86
2023/04/26 09:54:43;;;;;;;1.90;1.70;;;11.30;99.90;;;;;;5073001;28;20496;-87
2023/04/26 09:57:11;;;;;;;2.47;1.80;;;11.50;99.90;;;;;;5072665;28;20468;-86
2023/04/26 09:59:43;;;;;;;2.50;2.10;;;11.40;99.90;;;;;;5073743;28;20455;-86
2023/04/26 10:02:15;;;;;;;2.43;2.23;;;11.30;99.90;;;;;;5087013;28;20450;-86
2023/04/26 10:04:48;;;;;;;1.87;1.70;;;11.30;99.90;;;;;;5072863;28;20432;-85
2023/04/26 10:07:17;;;;;;;2.03;1.83;;;11.30;99.90;;;;;;5072257;28;20863;-87
2023/04/26 10:09:45;;;;;;;2.60;2.40;;;11.20;99.90;;;;;;5070256;28;20542;-87
2023/04/26 10:12:14;;;;;;;3.30;2.50;;;11.20;99.90;;;;;;5072653;28;20485;-87
2023/04/26 10:14:42;;;;;;;2.50;2.30;;;11.20;99.90;;;;;;5072757;28;20475;-87
2023/04/26 10:17:10;;;;;;;3.50;1.67;;;11.20;99.90;;;;;;5071448;28;20524;-87
2023/04/26 10:19:39;;;;;;;3.30;2.17;;;11.30;99.90;;;;;;5074962;28;20971;-86
2023/04/26 10:22:13;;;;;;;2.37;1.70;;;11.40;99.90;;;;;;5073553;28;20456;-87
2023/04/26 10:24:40;;;;;;;3.83;1.70;;;11.40;99.90;;;;;;5072749;28;20433;-87
2023/04/26 10:27:08;;;;;;;2.73;1.50;;;11.40;99.90;;;;;;5072706;28;20563;-87
2023/04/26 10:30:08;;;;;;;2.80;1.50;;;11.60;99.90;;;;;;5071278;28;20555;-87
2023/04/26 10:33:13;;;;;;;2.07;1.40;;;11.70;99.90;;;;;;5066671;28;20432;-86
2023/04/26 10:36:01;;;;;;;4.27;1.47;;;11.60;99.90;;;;;;5061761;28;20480;-86
2023/04/26 10:38:30;;;;;;;2.00;1.60;;;11.60;99.90;;;;;;5059987;28;20465;-87
2023/04/26 10:41:33;;;;;;;1.73;1.63;;;11.70;99.90;;;;;;5063755;28;20523;-86
2023/04/26 10:44:20;;;;;;;1.50;1.40;;;11.80;99.90;;;;;;5060226;28;20778;-87
2023/04/26 10:46:51;;;;;;;1.63;1.20;;;11.90;99.90;;;;;;5062771;28;20464;-85
2023/04/26 10:49:21;;;;;;;1.70;1.60;;;11.70;99.90;;;;;;5062475;28;20552;-86
2023/04/26 10:52:11;;;;;;;1.40;1.20;;;11.60;99.90;;;;;;5053548;28;20449;-87
2023/04/26 10:54:51;;;;;;;2.23;1.50;;;11.70;99.90;;;;;;5053174;28;20451;-87
2023/04/26 10:57:18;;;;;;;3.30;1.40;;;11.60;99.90;;;;;;5072576;28;20625;-88
2023/04/26 11:00:36;;;;;;;1.80;1.40;;;11.50;99.90;;;;;;5072488;28;20444;-88
2023/04/26 11:03:08;;;;;;;3.27;1.90;;;11.50;99.90;;;;;;5026200;28;21032;-88
2023/04/26 11:05:41;;;;;;;1.77;1.60;;;11.60;99.90;;;;;;5069074;28;20464;-88
2023/04/26 11:08:14;;;;;;;2.17;1.60;;;11.70;99.90;;;;;;5071565;28;20478;-88
2023/04/26 11:10:43;;;;;;;1.90;1.50;;;11.60;99.90;;;;;;5071438;28;20455;-88
2023/04/26 11:13:11;;;;;;;1.93;1.50;;;11.70;99.90;;;;;;5070961;28;20470;-87
2023/04/26 11:15:38;;;;;;;2.70;1.63;;;11.70;99.90;;;;;;5070550;28;20538;-88
2023/04/26 11:18:06;;;;;;;1.47;1.20;;;11.80;99.90;;;;;;5070543;28;21061;-88
2023/04/26 11:20:33;;;;;;;2.63;1.53;;;11.90;99.90;;;;;;5070888;28;20444;-88
2023/04/26 11:23:01;;;;;;;4.03;1.70;;;11.80;99.90;;;;;;5070944;28;20467;-88
2023/04/26 11:25:29;;;;;;;1.50;1.30;;;11.80;99.90;;;;;;5071551;28;20451;-88
2023/04/26 11:28:03;;;;;;;1.53;1.20;;;11.60;99.90;;;;;;5071654;28;20554;-88
2023/04/26 11:30:31;;;;;;;1.70;1.10;;;11.70;99.90;;;;;;5071568;28;20886;-88
2023/04/26 11:32:59;;;;;;;1.43;1.17;;;11.80;99.90;;;;;;5071423;28;20887;-87
2023/04/26 11:35:28;;;;;;;1.50;1.07;;;11.90;99.90;;;;;;5071633;28;20955;-88
2023/04/26 11:38:00;;;;;;;3.47;1.50;;;11.80;99.90;;;;;;5071689;28;20456;-87
2023/04/26 11:40:32;;;;;;;2.37;1.63;;;11.80;99.90;;;;;;5073674;28;20836;-87
2023/04/26 11:43:01;;;;;;;1.40;1.20;;;11.90;99.90;;;;;;5082589;28;20526;-87
2023/04/26 11:45:33;;;;;;;1.37;1.23;;;12.00;99.90;;;;;;5085750;28;20533;-87
2023/04/26 11:48:02;;;;;;;1.40;1.27;;;12.10;99.90;;;;;;5084419;28;20467;-87
2023/04/26 11:50:31;;;;;;;1.73;1.30;;;12.30;99.90;;;;;;5083304;28;20965;-88
2023/04/26 11:53:02;;;;;;;2.90;1.50;;;12.40;99.90;;;;;;5084995;28;20451;-87
2023/04/26 11:55:30;;;;;;;2.13;1.40;;;12.50;99.90;;;;;;5088940;28;20522;-86
2023/04/26 11:57:58;;;;;;;1.67;1.33;;;12.30;99.90;;;;;;5092414;28;20464;-87
2023/04/26 12:00:26;;;;;;;2.40;1.20;;;12.40;99.90;;;;;;5091561;28;20526;-87
2023/04/26 12:02:56;;;;;;;1.83;1.20;;;12.50;99.90;;;;;;5087271;28;20470;-87
2023/04/26 12:05:24;;;;;;;2.30;1.10;;;12.70;99.90;;;;;;5085861;28;20455;-87
2023/04/26 12:07:54;;;;;;;1.80;1.50;;;12.70;99.90;;;;;;5083353;28;20456;-87
2023/04/26 12:10:24;;;;;;;2.60;1.43;;;12.80;99.90;;;;;;5088914;28;20942;-87
2023/04/26 12:12:53;;;;;;;3.13;1.63;;;12.80;99.90;;;;;;5092306;28;20444;-88
2023/04/26 12:15:24;;;;;;;2.23;1.50;;;12.70;99.90;;;;;;5090600;28;20439;-88
2023/04/26 12:17:59;;;;;;;2.00;1.40;;;12.70;99.90;;;;;;5089235;28;20448;-88
2023/04/26 12:20:31;;;;;;;1.97;1.10;;;12.70;99.90;;;;;;5092125;28;20987;-88
2023/04/26 12:23:06;;;;;;;1.60;1.30;;;12.90;99.90;;;;;;5093691;28;20441;-88
2023/04/26 12:25:34;;;;;;;2.63;1.20;;;12.80;99.90;;;;;;5089613;28;20455;-87
2023/04/26 12:28:03;;;;;;;1.60;1.10;;;12.90;99.90;;;;;;5085923;28;20451;-87
2023/04/26 12:30:30;;;;;;;1.67;1.17;;;13.00;99.90;;;;;;5086327;28;20455;-87
2023/04/26 12:32:59;;;;;;;2.10;1.40;;;13.00;99.90;;;;;;5086143;28;20479;-87
2023/04/26 12:35:26;;;;;;;1.57;1.13;;;13.10;99.90;;;;;;5082915;28;20445;-88
2023/04/26 12:37:55;;;;;;;1.60;1.13;;;13.10;99.90;;;;;;5076193;28;20492;-87
2023/04/26 12:40:23;;;;;;;2.50;1.20;;;13.20;99.90;;;;;;5076498;28;20457;-88
2023/04/26 12:42:50;;;;;;;1.73;1.60;;;13.20;99.90;;;;;;5077044;28;20490;-89
2023/04/26 12:45:18;;;;;;;2.90;1.43;;;12.90;99.90;;;;;;5077316;28;20456;-88
2023/04/26 12:47:45;;;;;;;3.20;1.10;;;13.10;99.90;;;;;;5076359;28;20468;-88
2023/04/26 12:50:15;;;;;;;1.47;1.10;;;13.10;99.90;;;;;;5074731;28;20472;-88
2023/04/26 12:52:43;;;;;;;1.77;1.50;;;13.10;99.90;;;;;;5075125;28;20455;-88
2023/04/26 12:55:11;;;;;;;2.70;1.50;;;13.10;99.90;;;;;;5076346;28;21001;-88
2023/04/26 12:57:39;;;;;;;2.20;1.50;;;13.10;99.90;;;;;;5076323;28;20557;-88
2023/04/26 13:00:09;;;;;;;2.67;2.10;;;13.30;99.90;;;;;;5077145;28;20866;-87
2023/04/26 13:02:36;;;;;;;1.37;1.00;;;13.40;99.90;;;;;;5076732;28;20464;-88